sensor_id;sensor_type;location;lat;lon;timestamp;P1;durP1;ratioP1;P2;durP2;ratioP2
4921;SDS011;16625;53.624;10.106;2022-12-10T00:01:58;45.80;;;16.87;;
4921;SDS011;16625;53.624;10.106;2022-12-10T00:04:25;50.37;;;19.13;;
4921;SDS011;16625;53.624;10.106;2022-12-10T00:06:52;56.37;;;21.93;;
4921;SDS011;16625;53.624;10.106;2022-12-10T00:09:19;56.30;;;21.87;;
4921;SDS011;16625;53.624;10.106;2022-12-10T00:11:46;54.20;;;19.20;;
4921;SDS011;16625;53.624;10.106;2022-12-10T00:14:14;52.67;;;20.77;;
4921;SDS011;16625;53.624;10.106;2022-12-10T00:16:42;44.10;;;19.00;;
4921;SDS011;16625;53.624;10.106;2022-12-10T00:19:10;52.97;;;21.33;;
4921;SDS011;16625;53.624;10.106;2022-12-10T00:21:36;43.70;;;18.57;;
4921;SDS011;16625;53.624;10.106;2022-12-10T00:24:04;47.27;;;17.40;;
4921;SDS011;16625;53.624;10.106;2022-12-10T00:26:32;52.37;;;20.27;;
4921;SDS011;16625;53.624;10.106;2022-12-10T00:29:02;42.70;;;17.67;;
4921;SDS011;16625;53.624;10.106;2022-12-10T00:31:32;50.47;;;17.07;;
4921;SDS011;16625;53.624;10.106;2022-12-10T00:34:03;40.53;;;18.20;;
4921;SDS011;16625;53.624;10.106;2022-12-10T00:36:31;46.33;;;17.00;;
4921;SDS011;16625;53.624;10.106;2022-12-10T00:39:00;42.27;;;17.67;;
4921;SDS011;16625;53.624;10.106;2022-12-10T00:41:27;41.73;;;17.77;;
4921;SDS011;16625;53.624;10.106;2022-12-10T00:43:55;47.67;;;17.40;;
4921;SDS011;16625;53.624;10.106;2022-12-10T00:46:22;50.07;;;19.90;;
4921;SDS011;16625;53.624;10.106;2022-12-10T00:48:49;39.70;;;17.47;;
4921;SDS011;16625;53.624;10.106;2022-12-10T00:51:18;38.33;;;17.20;;
4921;SDS011;16625;53.624;10.106;2022-12-10T00:53:47;42.37;;;17.40;;
4921;SDS011;16625;53.624;10.106;2022-12-10T00:56:15;40.73;;;16.60;;
4921;SDS011;16625;53.624;10.106;2022-12-10T00:58:43;41.87;;;17.30;;
4921;SDS011;16625;53.624;10.106;2022-12-10T01:01:11;50.83;;;17.03;;
4921;SDS011;16625;53.624;10.106;2022-12-10T01:03:41;45.17;;;16.27;;
4921;SDS011;16625;53.624;10.106;2022-12-10T01:06:12;38.63;;;15.93;;
4921;SDS011;16625;53.624;10.106;2022-12-10T01:12:02;33.00;;;14.33;;
4921;SDS011;16625;53.624;10.106;2022-12-10T01:14:31;37.27;;;14.40;;
4921;SDS011;16625;53.624;10.106;2022-12-10T01:17:00;49.10;;;16.50;;
4921;SDS011;16625;53.624;10.106;2022-12-10T01:19:29;43.30;;;16.77;;
4921;SDS011;16625;53.624;10.106;2022-12-10T01:21:56;46.70;;;16.40;;
4921;SDS011;16625;53.624;10.106;2022-12-10T01:24:24;43.10;;;17.70;;
4921;SDS011;16625;53.624;10.106;2022-12-10T01:26:52;44.83;;;18.00;;
4921;SDS011;16625;53.624;10.106;2022-12-10T01:29:21;46.73;;;16.57;;
4921;SDS011;16625;53.624;10.106;2022-12-10T01:31:49;43.03;;;16.60;;
4921;SDS011;16625;53.624;10.106;2022-12-10T01:34:17;51.67;;;17.17;;
4921;SDS011;16625;53.624;10.106;2022-12-10T01:36:44;45.57;;;15.40;;
4921;SDS011;16625;53.624;10.106;2022-12-10T01:39:16;46.80;;;15.63;;
4921;SDS011;16625;53.624;10.106;2022-12-10T01:41:45;40.90;;;16.57;;
4921;SDS011;16625;53.624;10.106;2022-12-10T01:54:37;39.13;;;14.67;;
4921;SDS011;16625;53.624;10.106;2022-12-10T01:57:06;35.23;;;14.33;;
4921;SDS011;16625;53.624;10.106;2022-12-10T01:59:35;37.07;;;15.97;;
4921;SDS011;16625;53.624;10.106;2022-12-10T02:02:04;34.30;;;13.97;;
4921;SDS011;16625;53.624;10.106;2022-12-10T02:04:43;37.77;;;14.13;;
4921;SDS011;16625;53.624;10.106;2022-12-10T02:07:17;44.67;;;15.63;;
4921;SDS011;16625;53.624;10.106;2022-12-10T02:09:52;35.53;;;13.87;;
4921;SDS011;16625;53.624;10.106;2022-12-10T02:12:27;36.67;;;14.77;;
4921;SDS011;16625;53.624;10.106;2022-12-10T02:15:00;22.97;;;11.13;;
4921;SDS011;16625;53.624;10.106;2022-12-10T02:17:33;25.40;;;10.03;;
4921;SDS011;16625;53.624;10.106;2022-12-10T02:20:05;19.60;;;10.40;;
4921;SDS011;16625;53.624;10.106;2022-12-10T02:22:35;24.83;;;12.63;;
4921;SDS011;16625;53.624;10.106;2022-12-10T02:25:06;36.60;;;14.30;;
4921;SDS011;16625;53.624;10.106;2022-12-10T02:27:39;24.13;;;11.97;;
4921;SDS011;16625;53.624;10.106;2022-12-10T02:30:12;28.57;;;11.17;;
4921;SDS011;16625;53.624;10.106;2022-12-10T02:32:40;30.97;;;14.03;;
4921;SDS011;16625;53.624;10.106;2022-12-10T02:35:09;33.13;;;11.67;;
4921;SDS011;16625;53.624;10.106;2022-12-10T02:41:04;23.53;;;10.60;;
4921;SDS011;16625;53.624;10.106;2022-12-10T03:33:36;10.77;;;6.33;;
4921;SDS011;16625;53.624;10.106;2022-12-10T03:36:21;13.07;;;8.50;;
4921;SDS011;16625;53.624;10.106;2022-12-10T03:38:56;13.57;;;6.80;;
4921;SDS011;16625;53.624;10.106;2022-12-10T03:41:29;17.83;;;8.30;;
4921;SDS011;16625;53.624;10.106;2022-12-10T03:44:39;19.30;;;9.43;;
4921;SDS011;16625;53.624;10.106;2022-12-10T03:47:31;13.70;;;8.20;;
4921;SDS011;16625;53.624;10.106;2022-12-10T03:50:17;16.93;;;9.57;;
4921;SDS011;16625;53.624;10.106;2022-12-10T03:53:01;14.07;;;8.20;;
4921;SDS011;16625;53.624;10.106;2022-12-10T03:59:01;13.93;;;8.07;;
4921;SDS011;16625;53.624;10.106;2022-12-10T04:01:46;18.20;;;10.70;;
4921;SDS011;16625;53.624;10.106;2022-12-10T04:07:44;13.60;;;7.70;;
4921;SDS011;16625;53.624;10.106;2022-12-10T04:10:24;15.63;;;8.70;;
4921;SDS011;16625;53.624;10.106;2022-12-10T04:13:07;19.33;;;9.97;;
4921;SDS011;16625;53.624;10.106;2022-12-10T04:16:04;15.90;;;7.40;;
4921;SDS011;16625;53.624;10.106;2022-12-10T04:18:54;24.37;;;10.43;;
4921;SDS011;16625;53.624;10.106;2022-12-10T04:30:57;16.20;;;8.73;;
4921;SDS011;16625;53.624;10.106;2022-12-10T04:33:43;15.93;;;9.27;;
4921;SDS011;16625;53.624;10.106;2022-12-10T04:36:45;15.90;;;8.20;;
4921;SDS011;16625;53.624;10.106;2022-12-10T04:51:39;22.60;;;10.40;;
4921;SDS011;16625;53.624;10.106;2022-12-10T04:54:27;16.77;;;9.87;;
4921;SDS011;16625;53.624;10.106;2022-12-10T04:57:08;15.27;;;10.00;;
4921;SDS011;16625;53.624;10.106;2022-12-10T05:00:09;17.77;;;8.80;;
4921;SDS011;16625;53.624;10.106;2022-12-10T05:02:54;11.77;;;8.07;;
4921;SDS011;16625;53.624;10.106;2022-12-10T05:08:16;14.43;;;8.53;;
4921;SDS011;16625;53.624;10.106;2022-12-10T05:11:00;18.43;;;9.90;;
4921;SDS011;16625;53.624;10.106;2022-12-10T05:13:48;25.07;;;12.93;;
4921;SDS011;16625;53.624;10.106;2022-12-10T05:16:36;21.30;;;11.30;;
4921;SDS011;16625;53.624;10.106;2022-12-10T05:19:29;24.33;;;10.70;;
4921;SDS011;16625;53.624;10.106;2022-12-10T05:22:31;21.00;;;10.90;;
4921;SDS011;16625;53.624;10.106;2022-12-10T05:25:16;17.47;;;9.70;;
4921;SDS011;16625;53.624;10.106;2022-12-10T05:27:56;17.37;;;9.93;;
4921;SDS011;16625;53.624;10.106;2022-12-10T05:31:01;17.33;;;9.07;;
4921;SDS011;16625;53.624;10.106;2022-12-10T05:34:03;18.53;;;10.23;;
4921;SDS011;16625;53.624;10.106;2022-12-10T05:36:51;16.07;;;9.13;;
4921;SDS011;16625;53.624;10.106;2022-12-10T06:11:34;19.23;;;9.70;;
4921;SDS011;16625;53.624;10.106;2022-12-10T06:14:06;16.80;;;9.30;;
4921;SDS011;16625;53.624;10.106;2022-12-10T06:16:51;17.50;;;9.60;;
4921;SDS011;16625;53.624;10.106;2022-12-10T06:19:39;15.60;;;9.20;;
4921;SDS011;16625;53.624;10.106;2022-12-10T06:22:40;16.40;;;9.70;;
4921;SDS011;16625;53.624;10.106;2022-12-10T06:52:45;24.43;;;11.17;;
4921;SDS011;16625;53.624;10.106;2022-12-10T07:04:08;17.40;;;10.57;;
4921;SDS011;16625;53.624;10.106;2022-12-10T07:06:35;13.47;;;8.60;;
4921;SDS011;16625;53.624;10.106;2022-12-10T07:09:06;17.43;;;9.57;;
4921;SDS011;16625;53.624;10.106;2022-12-10T07:11:34;13.63;;;8.07;;
4921;SDS011;16625;53.624;10.106;2022-12-10T07:14:02;13.90;;;8.90;;
4921;SDS011;16625;53.624;10.106;2022-12-10T07:16:30;15.17;;;8.57;;
4921;SDS011;16625;53.624;10.106;2022-12-10T07:18:59;16.83;;;8.20;;
4921;SDS011;16625;53.624;10.106;2022-12-10T07:21:30;11.23;;;7.43;;
4921;SDS011;16625;53.624;10.106;2022-12-10T07:24:33;13.83;;;8.40;;
4921;SDS011;16625;53.624;10.106;2022-12-10T07:27:00;14.63;;;8.73;;
4921;SDS011;16625;53.624;10.106;2022-12-10T07:29:30;13.40;;;8.37;;
4921;SDS011;16625;53.624;10.106;2022-12-10T07:31:57;15.30;;;10.10;;
4921;SDS011;16625;53.624;10.106;2022-12-10T07:34:24;12.93;;;7.87;;
4921;SDS011;16625;53.624;10.106;2022-12-10T07:36:51;10.73;;;7.63;;
4921;SDS011;16625;53.624;10.106;2022-12-10T07:39:18;16.73;;;7.97;;
4921;SDS011;16625;53.624;10.106;2022-12-10T07:41:48;22.90;;;9.77;;
4921;SDS011;16625;53.624;10.106;2022-12-10T07:44:17;11.23;;;6.47;;
4921;SDS011;16625;53.624;10.106;2022-12-10T07:46:46;16.33;;;8.33;;
4921;SDS011;16625;53.624;10.106;2022-12-10T07:49:13;9.53;;;6.63;;
4921;SDS011;16625;53.624;10.106;2022-12-10T07:51:43;10.60;;;6.73;;
4921;SDS011;16625;53.624;10.106;2022-12-10T07:54:10;14.90;;;7.73;;
4921;SDS011;16625;53.624;10.106;2022-12-10T07:56:38;12.70;;;7.43;;
4921;SDS011;16625;53.624;10.106;2022-12-10T07:59:06;11.93;;;7.63;;
4921;SDS011;16625;53.624;10.106;2022-12-10T08:01:34;12.37;;;7.80;;
4921;SDS011;16625;53.624;10.106;2022-12-10T08:06:53;13.43;;;7.07;;
4921;SDS011;16625;53.624;10.106;2022-12-10T08:09:21;13.57;;;7.27;;
4921;SDS011;16625;53.624;10.106;2022-12-10T08:11:48;13.90;;;8.00;;
4921;SDS011;16625;53.624;10.106;2022-12-10T08:14:16;12.80;;;8.40;;
4921;SDS011;16625;53.624;10.106;2022-12-10T08:16:43;17.17;;;9.13;;
4921;SDS011;16625;53.624;10.106;2022-12-10T08:19:10;15.00;;;9.43;;
4921;SDS011;16625;53.624;10.106;2022-12-10T08:21:37;18.43;;;8.63;;
4921;SDS011;16625;53.624;10.106;2022-12-10T08:24:04;12.60;;;6.53;;
4921;SDS011;16625;53.624;10.106;2022-12-10T08:26:32;10.00;;;6.83;;
4921;SDS011;16625;53.624;10.106;2022-12-10T08:28:59;11.30;;;7.97;;
4921;SDS011;16625;53.624;10.106;2022-12-10T08:31:28;14.37;;;9.17;;
4921;SDS011;16625;53.624;10.106;2022-12-10T08:33:55;16.90;;;9.13;;
4921;SDS011;16625;53.624;10.106;2022-12-10T08:36:32;20.93;;;9.60;;
4921;SDS011;16625;53.624;10.106;2022-12-10T08:38:59;17.60;;;8.20;;
4921;SDS011;16625;53.624;10.106;2022-12-10T08:41:26;13.13;;;8.87;;
4921;SDS011;16625;53.624;10.106;2022-12-10T08:43:53;14.33;;;8.70;;
4921;SDS011;16625;53.624;10.106;2022-12-10T08:46:20;19.03;;;9.87;;
4921;SDS011;16625;53.624;10.106;2022-12-10T08:48:49;19.93;;;10.20;;
4921;SDS011;16625;53.624;10.106;2022-12-10T08:51:17;13.10;;;8.70;;
4921;SDS011;16625;53.624;10.106;2022-12-10T08:53:45;13.47;;;6.90;;
4921;SDS011;16625;53.624;10.106;2022-12-10T08:56:30;14.80;;;7.90;;
4921;SDS011;16625;53.624;10.106;2022-12-10T08:59:35;13.63;;;7.87;;
4921;SDS011;16625;53.624;10.106;2022-12-10T09:02:05;15.07;;;8.07;;
4921;SDS011;16625;53.624;10.106;2022-12-10T09:08:14;15.13;;;7.23;;
4921;SDS011;16625;53.624;10.106;2022-12-10T09:10:41;16.50;;;8.93;;
4921;SDS011;16625;53.624;10.106;2022-12-10T09:13:08;11.47;;;7.40;;
4921;SDS011;16625;53.624;10.106;2022-12-10T09:18:47;12.00;;;6.90;;
4921;SDS011;16625;53.624;10.106;2022-12-10T09:21:15;12.10;;;6.70;;
4921;SDS011;16625;53.624;10.106;2022-12-10T09:23:47;13.57;;;7.80;;
4921;SDS011;16625;53.624;10.106;2022-12-10T09:26:20;15.97;;;8.83;;
4921;SDS011;16625;53.624;10.106;2022-12-10T09:28:48;13.70;;;8.93;;
4921;SDS011;16625;53.624;10.106;2022-12-10T09:31:18;17.60;;;9.80;;
4921;SDS011;16625;53.624;10.106;2022-12-10T09:33:47;15.20;;;8.23;;
4921;SDS011;16625;53.624;10.106;2022-12-10T09:36:15;12.43;;;7.67;;
4921;SDS011;16625;53.624;10.106;2022-12-10T09:38:48;16.57;;;8.67;;
4921;SDS011;16625;53.624;10.106;2022-12-10T09:41:27;16.97;;;8.67;;
4921;SDS011;16625;53.624;10.106;2022-12-10T09:44:07;14.10;;;8.57;;
4921;SDS011;16625;53.624;10.106;2022-12-10T09:46:45;18.20;;;8.83;;
4921;SDS011;16625;53.624;10.106;2022-12-10T09:49:18;12.97;;;7.90;;
4921;SDS011;16625;53.624;10.106;2022-12-10T09:51:54;12.93;;;7.43;;
4921;SDS011;16625;53.624;10.106;2022-12-10T09:54:27;14.30;;;7.10;;
4921;SDS011;16625;53.624;10.106;2022-12-10T09:56:57;14.60;;;7.67;;
4921;SDS011;16625;53.624;10.106;2022-12-10T09:59:27;12.40;;;6.87;;
4921;SDS011;16625;53.624;10.106;2022-12-10T10:02:02;16.07;;;6.93;;
4921;SDS011;16625;53.624;10.106;2022-12-10T10:04:38;13.00;;;9.30;;
4921;SDS011;16625;53.624;10.106;2022-12-10T10:07:05;10.10;;;7.77;;
4921;SDS011;16625;53.624;10.106;2022-12-10T10:09:37;11.40;;;7.63;;
4921;SDS011;16625;53.624;10.106;2022-12-10T10:12:08;12.77;;;6.83;;
4921;SDS011;16625;53.624;10.106;2022-12-10T10:14:39;8.97;;;6.10;;
4921;SDS011;16625;53.624;10.106;2022-12-10T10:17:07;13.20;;;7.70;;
4921;SDS011;16625;53.624;10.106;2022-12-10T10:19:38;10.90;;;7.00;;
4921;SDS011;16625;53.624;10.106;2022-12-10T10:22:06;12.03;;;6.43;;
4921;SDS011;16625;53.624;10.106;2022-12-10T10:24:38;10.70;;;6.33;;
4921;SDS011;16625;53.624;10.106;2022-12-10T10:27:10;13.53;;;6.80;;
4921;SDS011;16625;53.624;10.106;2022-12-10T10:29:39;10.80;;;6.33;;
4921;SDS011;16625;53.624;10.106;2022-12-10T10:32:14;10.13;;;6.00;;
4921;SDS011;16625;53.624;10.106;2022-12-10T10:34:44;10.57;;;5.87;;
4921;SDS011;16625;53.624;10.106;2022-12-10T10:37:15;9.03;;;5.57;;
4921;SDS011;16625;53.624;10.106;2022-12-10T10:39:48;7.60;;;5.67;;
4921;SDS011;16625;53.624;10.106;2022-12-10T10:42:21;11.00;;;5.80;;
4921;SDS011;16625;53.624;10.106;2022-12-10T10:48:06;10.70;;;7.13;;
4921;SDS011;16625;53.624;10.106;2022-12-10T10:50:38;9.70;;;6.77;;
4921;SDS011;16625;53.624;10.106;2022-12-10T10:53:24;10.33;;;6.63;;
4921;SDS011;16625;53.624;10.106;2022-12-10T10:55:56;11.60;;;6.10;;
4921;SDS011;16625;53.624;10.106;2022-12-10T10:58:25;8.97;;;6.90;;
4921;SDS011;16625;53.624;10.106;2022-12-10T11:00:53;13.40;;;7.80;;
4921;SDS011;16625;53.624;10.106;2022-12-10T11:03:30;12.93;;;6.70;;
4921;SDS011;16625;53.624;10.106;2022-12-10T11:06:00;13.80;;;7.80;;
4921;SDS011;16625;53.624;10.106;2022-12-10T11:08:34;13.23;;;8.07;;
4921;SDS011;16625;53.624;10.106;2022-12-10T11:11:09;10.50;;;7.40;;
4921;SDS011;16625;53.624;10.106;2022-12-10T11:13:39;12.83;;;7.10;;
4921;SDS011;16625;53.624;10.106;2022-12-10T11:16:10;10.57;;;7.67;;
4921;SDS011;16625;53.624;10.106;2022-12-10T11:18:43;9.47;;;6.20;;
4921;SDS011;16625;53.624;10.106;2022-12-10T11:21:20;10.60;;;7.40;;
4921;SDS011;16625;53.624;10.106;2022-12-10T11:23:49;15.10;;;7.50;;
4921;SDS011;16625;53.624;10.106;2022-12-10T11:26:42;12.10;;;7.47;;
4921;SDS011;16625;53.624;10.106;2022-12-10T11:29:35;12.40;;;8.10;;
4921;SDS011;16625;53.624;10.106;2022-12-10T11:32:23;14.03;;;9.00;;
4921;SDS011;16625;53.624;10.106;2022-12-10T11:35:02;9.77;;;6.77;;
4921;SDS011;16625;53.624;10.106;2022-12-10T11:37:37;13.90;;;8.43;;
4921;SDS011;16625;53.624;10.106;2022-12-10T11:40:17;19.17;;;9.07;;
4921;SDS011;16625;53.624;10.106;2022-12-10T11:49:06;12.43;;;7.07;;
4921;SDS011;16625;53.624;10.106;2022-12-10T11:51:44;13.17;;;7.20;;
4921;SDS011;16625;53.624;10.106;2022-12-10T11:54:24;14.83;;;8.50;;
4921;SDS011;16625;53.624;10.106;2022-12-10T11:57:06;16.50;;;7.47;;
4921;SDS011;16625;53.624;10.106;2022-12-10T11:59:43;11.97;;;8.10;;
4921;SDS011;16625;53.624;10.106;2022-12-10T12:02:24;14.50;;;7.30;;
4921;SDS011;16625;53.624;10.106;2022-12-10T12:05:18;13.73;;;7.73;;
4921;SDS011;16625;53.624;10.106;2022-12-10T12:07:53;11.33;;;6.53;;
4921;SDS011;16625;53.624;10.106;2022-12-10T12:10:35;14.97;;;8.80;;
4921;SDS011;16625;53.624;10.106;2022-12-10T12:13:15;11.07;;;6.87;;
4921;SDS011;16625;53.624;10.106;2022-12-10T12:15:47;10.10;;;6.97;;
4921;SDS011;16625;53.624;10.106;2022-12-10T12:18:20;13.77;;;8.60;;
4921;SDS011;16625;53.624;10.106;2022-12-10T12:20:53;14.67;;;8.90;;
4921;SDS011;16625;53.624;10.106;2022-12-10T12:23:24;14.30;;;8.37;;
4921;SDS011;16625;53.624;10.106;2022-12-10T12:25:57;12.47;;;8.33;;
4921;SDS011;16625;53.624;10.106;2022-12-10T12:28:36;11.37;;;8.97;;
4921;SDS011;16625;53.624;10.106;2022-12-10T12:31:09;15.77;;;9.57;;
4921;SDS011;16625;53.624;10.106;2022-12-10T12:33:42;14.57;;;8.53;;
4921;SDS011;16625;53.624;10.106;2022-12-10T12:36:14;16.13;;;9.00;;
4921;SDS011;16625;53.624;10.106;2022-12-10T12:38:45;13.63;;;7.27;;
4921;SDS011;16625;53.624;10.106;2022-12-10T12:41:21;12.97;;;8.00;;
4921;SDS011;16625;53.624;10.106;2022-12-10T12:43:58;13.83;;;8.40;;
4921;SDS011;16625;53.624;10.106;2022-12-10T12:46:35;20.10;;;11.37;;
4921;SDS011;16625;53.624;10.106;2022-12-10T12:49:09;18.50;;;9.27;;
4921;SDS011;16625;53.624;10.106;2022-12-10T12:51:41;15.73;;;7.30;;
4921;SDS011;16625;53.624;10.106;2022-12-10T12:54:12;15.70;;;7.50;;
4921;SDS011;16625;53.624;10.106;2022-12-10T12:56:49;9.67;;;6.67;;
4921;SDS011;16625;53.624;10.106;2022-12-10T12:59:31;10.10;;;7.13;;
4921;SDS011;16625;53.624;10.106;2022-12-10T13:02:16;12.67;;;7.67;;
4921;SDS011;16625;53.624;10.106;2022-12-10T13:04:49;17.60;;;8.13;;
4921;SDS011;16625;53.624;10.106;2022-12-10T13:07:30;14.00;;;8.07;;
4921;SDS011;16625;53.624;10.106;2022-12-10T13:10:08;9.90;;;6.83;;
4921;SDS011;16625;53.624;10.106;2022-12-10T13:13:15;13.93;;;7.73;;
4921;SDS011;16625;53.624;10.106;2022-12-10T13:15:49;15.00;;;6.93;;
4921;SDS011;16625;53.624;10.106;2022-12-10T13:21:17;11.13;;;7.40;;
4921;SDS011;16625;53.624;10.106;2022-12-10T13:23:54;15.47;;;8.63;;
4921;SDS011;16625;53.624;10.106;2022-12-10T13:26:32;16.10;;;8.47;;
4921;SDS011;16625;53.624;10.106;2022-12-10T13:29:11;12.40;;;7.97;;
4921;SDS011;16625;53.624;10.106;2022-12-10T13:31:54;14.50;;;9.33;;
4921;SDS011;16625;53.624;10.106;2022-12-10T13:34:41;13.87;;;9.33;;
4921;SDS011;16625;53.624;10.106;2022-12-10T13:37:18;16.57;;;9.03;;
4921;SDS011;16625;53.624;10.106;2022-12-10T13:40:00;15.43;;;8.60;;
4921;SDS011;16625;53.624;10.106;2022-12-10T13:42:39;17.77;;;8.87;;
4921;SDS011;16625;53.624;10.106;2022-12-10T13:45:29;15.67;;;8.90;;
4921;SDS011;16625;53.624;10.106;2022-12-10T13:51:03;17.50;;;9.80;;
4921;SDS011;16625;53.624;10.106;2022-12-10T13:53:59;14.60;;;9.40;;
4921;SDS011;16625;53.624;10.106;2022-12-10T13:56:36;16.87;;;8.87;;
4921;SDS011;16625;53.624;10.106;2022-12-10T13:59:16;17.83;;;9.10;;
4921;SDS011;16625;53.624;10.106;2022-12-10T14:01:56;15.93;;;9.67;;
4921;SDS011;16625;53.624;10.106;2022-12-10T14:04:42;18.93;;;9.37;;
4921;SDS011;16625;53.624;10.106;2022-12-10T14:07:25;21.80;;;9.67;;
4921;SDS011;16625;53.624;10.106;2022-12-10T14:09:58;18.83;;;10.90;;
4921;SDS011;16625;53.624;10.106;2022-12-10T14:12:28;16.40;;;9.03;;
4921;SDS011;16625;53.624;10.106;2022-12-10T14:15:01;17.23;;;8.37;;
4921;SDS011;16625;53.624;10.106;2022-12-10T14:17:30;21.53;;;9.83;;
4921;SDS011;16625;53.624;10.106;2022-12-10T14:20:01;19.70;;;9.37;;
4921;SDS011;16625;53.624;10.106;2022-12-10T14:22:32;15.73;;;8.07;;
4921;SDS011;16625;53.624;10.106;2022-12-10T14:25:02;15.37;;;9.50;;
4921;SDS011;16625;53.624;10.106;2022-12-10T14:27:32;23.13;;;10.80;;
4921;SDS011;16625;53.624;10.106;2022-12-10T14:30:03;15.10;;;8.50;;
4921;SDS011;16625;53.624;10.106;2022-12-10T14:35:30;20.83;;;8.90;;
4921;SDS011;16625;53.624;10.106;2022-12-10T14:37:59;18.50;;;8.80;;
4921;SDS011;16625;53.624;10.106;2022-12-10T14:40:27;21.60;;;11.13;;
4921;SDS011;16625;53.624;10.106;2022-12-10T14:42:59;23.17;;;12.50;;
4921;SDS011;16625;53.624;10.106;2022-12-10T14:45:35;20.87;;;10.47;;
4921;SDS011;16625;53.624;10.106;2022-12-10T14:48:09;19.10;;;10.13;;
4921;SDS011;16625;53.624;10.106;2022-12-10T14:50:38;23.50;;;10.67;;
4921;SDS011;16625;53.624;10.106;2022-12-10T14:53:11;21.60;;;10.07;;
4921;SDS011;16625;53.624;10.106;2022-12-10T14:55:42;19.10;;;10.00;;
4921;SDS011;16625;53.624;10.106;2022-12-10T14:58:11;18.00;;;10.40;;
4921;SDS011;16625;53.624;10.106;2022-12-10T15:00:43;17.03;;;9.67;;
4921;SDS011;16625;53.624;10.106;2022-12-10T15:03:11;14.20;;;9.23;;
4921;SDS011;16625;53.624;10.106;2022-12-10T15:05:53;17.87;;;9.53;;
4921;SDS011;16625;53.624;10.106;2022-12-10T15:08:23;18.80;;;9.93;;
4921;SDS011;16625;53.624;10.106;2022-12-10T15:10:52;16.87;;;9.47;;
4921;SDS011;16625;53.624;10.106;2022-12-10T15:13:29;15.53;;;9.40;;
4921;SDS011;16625;53.624;10.106;2022-12-10T15:16:00;25.47;;;9.80;;
4921;SDS011;16625;53.624;10.106;2022-12-10T15:18:28;17.20;;;10.00;;
4921;SDS011;16625;53.624;10.106;2022-12-10T15:21:03;19.10;;;9.53;;
4921;SDS011;16625;53.624;10.106;2022-12-10T15:23:36;16.17;;;9.23;;
4921;SDS011;16625;53.624;10.106;2022-12-10T15:26:10;21.07;;;9.40;;
4921;SDS011;16625;53.624;10.106;2022-12-10T15:28:43;19.67;;;9.40;;
4921;SDS011;16625;53.624;10.106;2022-12-10T15:31:12;19.00;;;8.90;;
4921;SDS011;16625;53.624;10.106;2022-12-10T15:33:42;21.47;;;10.10;;
4921;SDS011;16625;53.624;10.106;2022-12-10T15:42:28;16.80;;;8.50;;
4921;SDS011;16625;53.624;10.106;2022-12-10T15:45:03;16.10;;;9.27;;
4921;SDS011;16625;53.624;10.106;2022-12-10T15:47:57;17.23;;;9.23;;
4921;SDS011;16625;53.624;10.106;2022-12-10T15:50:25;37.37;;;14.80;;
4921;SDS011;16625;53.624;10.106;2022-12-10T15:52:53;15.90;;;9.30;;
4921;SDS011;16625;53.624;10.106;2022-12-10T15:55:25;16.93;;;9.27;;
4921;SDS011;16625;53.624;10.106;2022-12-10T15:57:53;17.87;;;8.90;;
4921;SDS011;16625;53.624;10.106;2022-12-10T16:00:24;30.60;;;13.27;;
4921;SDS011;16625;53.624;10.106;2022-12-10T16:02:53;37.77;;;13.27;;
4921;SDS011;16625;53.624;10.106;2022-12-10T16:05:27;20.43;;;10.77;;
4921;SDS011;16625;53.624;10.106;2022-12-10T16:07:58;13.33;;;6.87;;
4921;SDS011;16625;53.624;10.106;2022-12-10T16:10:28;22.90;;;9.37;;
4921;SDS011;16625;53.624;10.106;2022-12-10T16:15:45;19.00;;;9.40;;
4921;SDS011;16625;53.624;10.106;2022-12-10T16:18:16;15.73;;;9.43;;
4921;SDS011;16625;53.624;10.106;2022-12-10T16:20:47;34.13;;;14.97;;
4921;SDS011;16625;53.624;10.106;2022-12-10T16:23:27;19.73;;;10.30;;
4921;SDS011;16625;53.624;10.106;2022-12-10T16:26:09;18.73;;;10.43;;
4921;SDS011;16625;53.624;10.106;2022-12-10T16:29:08;17.10;;;8.80;;
4921;SDS011;16625;53.624;10.106;2022-12-10T16:31:48;20.80;;;9.97;;
4921;SDS011;16625;53.624;10.106;2022-12-10T16:34:18;18.53;;;10.27;;
4921;SDS011;16625;53.624;10.106;2022-12-10T16:36:52;20.57;;;9.67;;
4921;SDS011;16625;53.624;10.106;2022-12-10T16:39:36;21.30;;;10.57;;
4921;SDS011;16625;53.624;10.106;2022-12-10T16:42:15;16.90;;;10.20;;
4921;SDS011;16625;53.624;10.106;2022-12-10T16:44:42;17.77;;;10.37;;
4921;SDS011;16625;53.624;10.106;2022-12-10T16:47:20;19.67;;;9.90;;
4921;SDS011;16625;53.624;10.106;2022-12-10T16:49:58;21.70;;;9.30;;
4921;SDS011;16625;53.624;10.106;2022-12-10T16:52:33;15.60;;;9.00;;
4921;SDS011;16625;53.624;10.106;2022-12-10T16:55:03;15.73;;;9.53;;
4921;SDS011;16625;53.624;10.106;2022-12-10T16:57:34;17.30;;;9.53;;
4921;SDS011;16625;53.624;10.106;2022-12-10T17:00:10;22.53;;;11.47;;
4921;SDS011;16625;53.624;10.106;2022-12-10T17:02:53;34.00;;;15.50;;
4921;SDS011;16625;53.624;10.106;2022-12-10T17:05:41;23.00;;;10.20;;
4921;SDS011;16625;53.624;10.106;2022-12-10T17:08:13;28.73;;;10.60;;
4921;SDS011;16625;53.624;10.106;2022-12-10T17:10:59;22.03;;;10.70;;
4921;SDS011;16625;53.624;10.106;2022-12-10T17:13:57;29.93;;;11.83;;
4921;SDS011;16625;53.624;10.106;2022-12-10T17:16:36;22.20;;;11.07;;
4921;SDS011;16625;53.624;10.106;2022-12-10T17:19:13;18.67;;;10.07;;
4921;SDS011;16625;53.624;10.106;2022-12-10T17:21:49;20.43;;;10.50;;
4921;SDS011;16625;53.624;10.106;2022-12-10T17:24:22;21.10;;;9.93;;
4921;SDS011;16625;53.624;10.106;2022-12-10T17:27:05;23.73;;;10.80;;
4921;SDS011;16625;53.624;10.106;2022-12-10T17:29:52;26.63;;;12.10;;
4921;SDS011;16625;53.624;10.106;2022-12-10T17:32:32;21.10;;;9.93;;
4921;SDS011;16625;53.624;10.106;2022-12-10T17:38:15;24.70;;;10.50;;
4921;SDS011;16625;53.624;10.106;2022-12-10T17:41:11;30.07;;;12.17;;
4921;SDS011;16625;53.624;10.106;2022-12-10T17:43:49;18.80;;;9.73;;
4921;SDS011;16625;53.624;10.106;2022-12-10T17:46:26;18.13;;;9.00;;
4921;SDS011;16625;53.624;10.106;2022-12-10T17:49:11;23.50;;;12.47;;
4921;SDS011;16625;53.624;10.106;2022-12-10T17:52:02;23.90;;;10.90;;
4921;SDS011;16625;53.624;10.106;2022-12-10T17:55:02;20.00;;;11.70;;
4921;SDS011;16625;53.624;10.106;2022-12-10T17:58:06;20.47;;;11.47;;
4921;SDS011;16625;53.624;10.106;2022-12-10T18:00:36;21.40;;;9.93;;
4921;SDS011;16625;53.624;10.106;2022-12-10T18:03:07;14.47;;;8.67;;
4921;SDS011;16625;53.624;10.106;2022-12-10T18:05:48;17.17;;;10.60;;
4921;SDS011;16625;53.624;10.106;2022-12-10T18:08:41;18.00;;;8.77;;
4921;SDS011;16625;53.624;10.106;2022-12-10T18:11:17;32.47;;;13.10;;
4921;SDS011;16625;53.624;10.106;2022-12-10T18:13:48;20.57;;;10.37;;
4921;SDS011;16625;53.624;10.106;2022-12-10T18:16:34;21.73;;;10.20;;
4921;SDS011;16625;53.624;10.106;2022-12-10T18:19:20;15.80;;;8.60;;
4921;SDS011;16625;53.624;10.106;2022-12-10T18:22:04;22.37;;;11.87;;
4921;SDS011;16625;53.624;10.106;2022-12-10T18:24:49;18.50;;;8.63;;
4921;SDS011;16625;53.624;10.106;2022-12-10T18:27:27;20.60;;;11.97;;
4921;SDS011;16625;53.624;10.106;2022-12-10T18:30:09;20.70;;;10.10;;
4921;SDS011;16625;53.624;10.106;2022-12-10T18:32:49;18.30;;;9.90;;
4921;SDS011;16625;53.624;10.106;2022-12-10T18:35:22;16.43;;;8.50;;
4921;SDS011;16625;53.624;10.106;2022-12-10T18:38:05;15.13;;;7.10;;
4921;SDS011;16625;53.624;10.106;2022-12-10T18:40:44;19.17;;;8.90;;
4921;SDS011;16625;53.624;10.106;2022-12-10T18:43:22;16.63;;;9.33;;
4921;SDS011;16625;53.624;10.106;2022-12-10T18:46:05;17.77;;;8.90;;